createdAt,value
2019-05-13T00:01:29.084Z,60.0
2019-05-13T00:18:04.868Z,60.4
2019-05-13T00:34:40.567Z,61.2
2019-05-13T00:51:16.166Z,61.2
2019-05-13T01:07:53.640Z,62.0
2019-05-13T01:24:27.060Z,62.8
2019-05-13T01:41:04.358Z,63.2
2019-05-13T01:57:37.243Z,64.0
2019-05-13T02:14:13.264Z,64.0
2019-05-13T02:30:47.372Z,64.8
2019-05-13T02:47:22.716Z,65.2
2019-05-13T03:03:57.164Z,65.6
2019-05-13T03:20:33.415Z,66.0
2019-05-13T03:37:08.031Z,66.4
2019-05-13T03:53:43.200Z,66.8
2019-05-13T04:10:16.054Z,67.2
2019-05-13T04:26:53.357Z,67.6
2019-05-13T04:43:25.697Z,68.0
2019-05-13T05:00:04.210Z,67.6
2019-05-13T05:16:40.767Z,67.6
2019-05-13T05:26:34.553Z,67.6
2019-05-13T05:39:51.779Z,67.2
2019-05-13T05:46:32.347Z,67.2
2019-05-13T05:56:28.911Z,66.0
2019-05-13T06:09:47.053Z,65.2
2019-05-13T06:26:25.033Z,64.8
2019-05-13T06:36:24.008Z,64.4
2019-05-13T06:46:23.264Z,62.4
2019-05-13T07:03:02.463Z,62.4
2019-05-13T07:19:41.604Z,61.2
2019-05-13T07:29:42.349Z,59.2
2019-05-13T07:46:21.640Z,58.8
2019-05-13T07:59:39.057Z,58.0
2019-05-13T08:12:59.002Z,56.0
2019-05-13T08:22:59.088Z,56.8
2019-05-13T08:29:41.912Z,54.8
2019-05-13T08:46:21.822Z,52.4
2019-05-13T08:53:03.620Z,49.6
2019-05-13T08:56:21.784Z,47.2
2019-05-13T08:59:42.263Z,45.2
2019-05-13T09:03:06.007Z,48.0
2019-05-13T09:09:41.939Z,45.6
2019-05-13T09:23:02.199Z,42.4
2019-05-13T09:26:22.650Z,38.0
2019-05-13T09:29:42.930Z,40.8
2019-05-13T09:36:22.767Z,42.8
2019-05-13T09:39:43.030Z,40.0
2019-05-13T09:49:43.863Z,35.2
2019-05-13T09:53:04.177Z,39.2
2019-05-13T09:56:24.427Z,35.6
2019-05-13T09:59:44.701Z,38.8
2019-05-13T10:03:05.047Z,36.4
2019-05-13T10:09:48.224Z,38.8
2019-05-13T10:19:46.938Z,36.8
2019-05-13T10:26:27.536Z,39.2
2019-05-13T10:33:08.338Z,36.8
2019-05-13T10:49:52.374Z,36.4
2019-05-13T10:59:52.815Z,34.4
2019-05-13T11:16:34.030Z,35.2
2019-05-13T11:19:54.579Z,31.6
2019-05-13T11:26:36.441Z,34.0
2019-05-13T11:33:17.077Z,31.2
2019-05-13T11:43:18.502Z,34.0
2019-05-13T11:46:42.042Z,32.0
2019-05-13T12:03:23.241Z,33.2
2019-05-13T12:06:47.916Z,30.0
2019-05-13T12:10:03.673Z,33.2
2019-05-13T12:13:24.242Z,31.2
2019-05-13T12:26:46.938Z,28.0
2019-05-13T12:30:07.522Z,30.0
2019-05-13T12:46:54.095Z,30.0
2019-05-13T12:53:32.358Z,28.8
2019-05-13T13:03:34.194Z,31.2
2019-05-13T13:16:56.857Z,29.2
2019-05-13T13:33:44.443Z,30.4
2019-05-13T13:43:53.781Z,27.6
2019-05-13T13:47:03.672Z,30.0
2019-05-13T14:00:38.309Z,28.0
2019-05-13T14:10:28.510Z,30.4
2019-05-13T14:27:12.426Z,29.2
2019-05-13T14:43:55.820Z,28.0
2019-05-13T15:00:41.926Z,29.2
2019-05-13T15:17:23.134Z,27.6
2019-05-13T15:34:06.785Z,29.2
2019-05-13T15:50:51.317Z,29.2
2019-05-13T16:07:34.194Z,30.0
2019-05-13T16:24:18.332Z,30.4
2019-05-13T16:41:02.835Z,31.6
2019-05-13T16:47:56.608Z,31.2
2019-05-13T17:04:32.173Z,30.8
2019-05-13T17:21:16.909Z,30.8
2019-05-13T17:27:59.068Z,30.4
2019-05-13T17:34:43.659Z,31.6
2019-05-13T17:41:22.638Z,32.0
2019-05-13T17:48:03.946Z,33.2
2019-05-13T17:58:05.633Z,33.2
2019-05-13T18:14:47.984Z,34.8
2019-05-13T18:28:24.922Z,35.6
2019-05-13T18:44:51.454Z,36.8
2019-05-13T19:01:32.507Z,37.6
2019-05-13T19:14:53.217Z,38.4
2019-05-13T19:31:33.912Z,39.2
2019-05-13T19:48:14.252Z,40.4
2019-05-13T20:04:54.215Z,41.2
2019-05-13T20:21:34.775Z,41.6
2019-05-13T20:38:13.368Z,42.8
2019-05-13T20:54:52.594Z,43.6
2019-05-13T21:08:11.621Z,46.4
2019-05-13T21:24:51.532Z,47.6
2019-05-13T21:41:28.638Z,48.8
2019-05-13T21:48:07.946Z,51.2
2019-05-13T21:54:47.121Z,53.2
2019-05-13T22:11:24.968Z,53.2
2019-05-13T22:28:02.462Z,55.2
2019-05-13T22:44:41.755Z,58.0
2019-05-13T23:01:16.934Z,57.6
2019-05-13T23:17:53.899Z,56.0
2019-05-13T23:34:31.768Z,57.2
2019-05-13T23:37:51.004Z,59.6
2019-05-13T23:54:26.543Z,58.0
